createdAt,value
2023-09-12T00:02:17.840Z,16.67
2023-09-12T00:04:45.157Z,14.47
2023-09-12T00:07:12.541Z,16.63
2023-09-12T00:09:39.699Z,13.03
2023-09-12T00:12:07.290Z,15.17
2023-09-12T00:14:34.512Z,13.90
2023-09-12T00:17:01.844Z,12.07
2023-09-12T00:19:29.008Z,13.33
2023-09-12T00:21:56.467Z,11.50
2023-09-12T00:24:23.627Z,19.53
2023-09-12T00:26:51.005Z,14.83
2023-09-12T00:29:18.867Z,10.50
2023-09-12T00:31:46.953Z,14.70
2023-09-12T00:34:23.099Z,11.50
2023-09-12T00:36:50.231Z,19.13
2023-09-12T00:39:17.460Z,13.37
2023-09-12T00:41:45.286Z,14.67
2023-09-12T00:44:12.520Z,15.50
2023-09-12T00:46:41.659Z,15.90
2023-09-12T00:49:09.684Z,12.53
2023-09-12T00:51:38.168Z,16.43
2023-09-12T00:54:05.941Z,14.30
2023-09-12T00:56:33.937Z,17.70
2023-09-12T00:59:03.244Z,13.93
2023-09-12T01:01:30.893Z,11.63
2023-09-12T01:03:58.288Z,11.60
2023-09-12T01:06:29.948Z,11.90
2023-09-12T01:08:57.366Z,11.53
2023-09-12T01:11:25.319Z,13.63
2023-09-12T01:13:52.437Z,12.40
2023-09-12T01:16:19.629Z,12.37
2023-09-12T01:18:47.590Z,13.27
2023-09-12T01:21:40.099Z,12.37
2023-09-12T01:24:58.011Z,12.73
2023-09-12T01:27:47.150Z,12.67
2023-09-12T01:30:18.518Z,14.23
2023-09-12T01:32:46.433Z,12.10
2023-09-12T01:35:14.882Z,13.93
2023-09-12T01:37:42.036Z,13.50
2023-09-12T01:40:11.487Z,11.57
2023-09-12T01:42:43.589Z,26.10
2023-09-12T01:45:19.858Z,13.03
2023-09-12T01:47:50.667Z,12.33
2023-09-12T01:50:18.865Z,12.90
2023-09-12T01:52:46.250Z,12.67
2023-09-12T01:55:14.104Z,12.50
2023-09-12T01:57:42.413Z,12.70
2023-09-12T02:00:10.594Z,14.13
2023-09-12T02:02:37.759Z,29.20
2023-09-12T02:05:24.672Z,11.10
2023-09-12T02:07:52.149Z,13.30
2023-09-12T02:10:19.634Z,13.13
2023-09-12T02:12:46.784Z,11.33
2023-09-12T02:15:13.992Z,13.17
2023-09-12T02:17:41.167Z,13.03
2023-09-12T02:20:10.379Z,18.90
2023-09-12T02:22:38.251Z,16.33
2023-09-12T02:25:07.430Z,20.97
2023-09-12T02:27:34.609Z,11.83
2023-09-12T02:30:01.854Z,15.23
2023-09-12T02:32:29.205Z,14.40
2023-09-12T02:34:58.256Z,12.20
2023-09-12T02:37:25.823Z,11.57
2023-09-12T02:39:53.083Z,12.13
2023-09-12T02:42:20.484Z,12.07
2023-09-12T02:44:48.863Z,12.43
2023-09-12T02:47:16.378Z,12.60
2023-09-12T02:49:43.591Z,14.70
2023-09-12T02:52:10.744Z,11.33
2023-09-12T02:54:38.051Z,13.63
2023-09-12T02:57:06.066Z,11.80
2023-09-12T02:59:33.277Z,11.43
2023-09-12T03:02:00.677Z,15.37
2023-09-12T03:04:29.682Z,13.07
2023-09-12T03:06:57.431Z,12.60
2023-09-12T03:09:25.497Z,14.43
2023-09-12T03:11:52.839Z,14.77
2023-09-12T03:14:20.033Z,11.07
2023-09-12T03:16:47.300Z,11.03
2023-09-12T03:19:14.597Z,12.93
2023-09-12T03:21:41.995Z,17.00
2023-09-12T03:24:09.311Z,14.53
2023-09-12T03:26:37.399Z,12.50
2023-09-12T03:29:05.681Z,13.70
2023-09-12T03:31:33.470Z,13.40
2023-09-12T03:34:00.801Z,18.07
2023-09-12T03:36:28.017Z,13.40
2023-09-12T03:38:55.161Z,14.60
2023-09-12T03:41:26.301Z,12.30
2023-09-12T03:43:56.435Z,14.43
2023-09-12T03:46:23.996Z,16.93
2023-09-12T03:48:51.518Z,14.60
2023-09-12T03:51:19.270Z,13.70
2023-09-12T03:53:48.833Z,14.33
2023-09-12T03:56:16.844Z,12.60
2023-09-12T03:58:44.274Z,16.93
2023-09-12T04:01:11.859Z,13.83
2023-09-12T04:03:39.335Z,22.17
2023-09-12T04:06:06.630Z,18.53
2023-09-12T04:08:34.176Z,12.93
2023-09-12T04:11:01.510Z,16.83
2023-09-12T04:13:28.753Z,11.07
2023-09-12T04:15:56.097Z,12.77
2023-09-12T04:18:23.993Z,12.17
2023-09-12T04:20:51.247Z,13.73
2023-09-12T04:23:18.431Z,13.50
2023-09-12T04:25:48.227Z,12.70
2023-09-12T04:28:15.795Z,12.90
2023-09-12T04:30:45.886Z,15.33
2023-09-12T04:33:14.689Z,13.17
2023-09-12T04:35:41.933Z,15.83
2023-09-12T04:38:09.391Z,12.73
2023-09-12T04:40:40.867Z,11.40
2023-09-12T04:43:08.731Z,13.17
2023-09-12T04:45:36.158Z,20.43
2023-09-12T04:48:04.109Z,23.13
2023-09-12T04:50:31.446Z,12.40
2023-09-12T04:52:58.600Z,10.47
2023-09-12T04:55:25.891Z,18.60
2023-09-12T04:57:53.071Z,11.90
2023-09-12T05:00:20.520Z,18.13
2023-09-12T05:02:48.264Z,10.63
2023-09-12T05:05:15.634Z,12.10
2023-09-12T05:07:42.803Z,15.97
2023-09-12T05:10:10.551Z,16.23
2023-09-12T05:12:37.756Z,13.13
2023-09-12T05:15:05.564Z,16.80
2023-09-12T05:17:32.772Z,22.03
2023-09-12T05:20:00.432Z,24.53
2023-09-12T05:22:28.476Z,34.63
2023-09-12T05:24:55.787Z,23.00
2023-09-12T05:27:22.976Z,22.10
2023-09-12T05:29:50.284Z,19.23
2023-09-12T05:32:17.941Z,18.80
2023-09-12T05:34:46.882Z,16.80
2023-09-12T05:37:14.234Z,23.27
2023-09-12T05:39:41.507Z,27.70
2023-09-12T05:42:11.295Z,17.00
2023-09-12T05:44:39.102Z,14.90
2023-09-12T05:47:08.002Z,21.43
2023-09-12T05:49:37.787Z,18.47
2023-09-12T05:52:14.878Z,22.47
2023-09-12T05:54:43.392Z,14.97
2023-09-12T05:57:11.920Z,16.10
2023-09-12T05:59:40.495Z,12.43
2023-09-12T06:02:10.670Z,17.03
2023-09-12T06:04:38.156Z,15.27
2023-09-12T06:07:05.735Z,15.70
2023-09-12T06:09:33.060Z,20.60
2023-09-12T06:12:00.250Z,17.37
2023-09-12T06:14:27.408Z,13.80
2023-09-12T06:16:54.918Z,16.07
2023-09-12T06:19:22.200Z,11.60
2023-09-12T06:21:49.458Z,15.50
2023-09-12T06:24:22.630Z,16.30
2023-09-12T06:26:49.879Z,19.20
2023-09-12T06:29:23.316Z,17.83
2023-09-12T06:31:50.458Z,11.70
2023-09-12T06:34:17.547Z,14.53
2023-09-12T06:36:46.319Z,14.60
2023-09-12T06:39:13.630Z,22.00
2023-09-12T06:41:40.872Z,16.10
2023-09-12T06:44:08.704Z,16.77
2023-09-12T06:46:39.119Z,15.73
2023-09-12T06:49:06.540Z,17.53
2023-09-12T06:51:37.588Z,13.67
2023-09-12T06:54:05.771Z,20.57
2023-09-12T06:56:33.693Z,12.00
2023-09-12T06:59:00.919Z,14.77
2023-09-12T07:01:28.142Z,14.53
2023-09-12T07:03:56.954Z,12.17
2023-09-12T07:06:24.933Z,13.10
2023-09-12T07:08:55.658Z,11.13
2023-09-12T07:11:25.302Z,11.80
2023-09-12T07:13:53.651Z,16.20
2023-09-12T07:16:21.647Z,10.57
2023-09-12T07:18:52.160Z,17.73
2023-09-12T07:21:19.422Z,10.10
2023-09-12T07:23:46.512Z,14.70
2023-09-12T07:26:15.726Z,14.40
2023-09-12T07:28:43.045Z,17.23
2023-09-12T07:31:10.328Z,18.67
2023-09-12T07:33:37.504Z,12.00
2023-09-12T07:36:05.157Z,14.40
2023-09-12T07:38:32.380Z,13.10
2023-09-12T07:41:01.226Z,17.43
2023-09-12T07:43:28.293Z,15.50
2023-09-12T07:45:59.628Z,17.90
2023-09-12T07:48:26.979Z,14.33
2023-09-12T07:50:54.239Z,12.27
2023-09-12T07:53:21.375Z,14.47
2023-09-12T07:55:48.534Z,20.23
2023-09-12T07:58:19.826Z,24.27
2023-09-12T08:00:47.965Z,16.80
2023-09-12T08:03:16.522Z,12.23
2023-09-12T08:05:44.193Z,15.80
2023-09-12T08:08:11.677Z,13.83
2023-09-12T08:10:38.792Z,19.50
2023-09-12T08:13:05.918Z,15.27
2023-09-12T08:15:33.023Z,14.13
2023-09-12T08:18:00.190Z,12.30
2023-09-12T08:20:27.680Z,15.93
2023-09-12T08:22:54.987Z,11.30
2023-09-12T08:25:22.104Z,17.00
2023-09-12T08:27:49.308Z,13.97
2023-09-12T08:30:17.472Z,13.13
2023-09-12T08:32:45.670Z,9.90
2023-09-12T08:35:14.712Z,11.20
2023-09-12T08:37:42.927Z,11.93
2023-09-12T08:40:12.447Z,11.87
2023-09-12T08:42:45.168Z,14.03
2023-09-12T08:45:20.752Z,8.70
2023-09-12T08:47:56.702Z,12.83
2023-09-12T08:50:24.832Z,14.70
2023-09-12T08:53:06.494Z,14.37
2023-09-12T08:55:36.836Z,18.23
2023-09-12T08:58:06.304Z,12.30
2023-09-12T09:00:34.339Z,10.60
2023-09-12T09:03:02.372Z,10.67
2023-09-12T09:05:30.335Z,12.13
2023-09-12T09:07:58.397Z,23.03
2023-09-12T09:10:38.458Z,11.30
2023-09-12T09:13:14.154Z,19.60
2023-09-12T09:15:43.389Z,10.37
2023-09-12T09:18:13.273Z,12.30
2023-09-12T09:20:42.406Z,17.67
2023-09-12T09:23:12.355Z,15.40
2023-09-12T09:25:44.919Z,15.33
2023-09-12T09:28:20.926Z,11.80
2023-09-12T09:30:52.433Z,16.83
2023-09-12T09:33:20.638Z,13.97
2023-09-12T09:35:49.945Z,7.53
2023-09-12T09:38:21.151Z,10.40
2023-09-12T09:40:49.368Z,14.93
2023-09-12T09:43:22.417Z,16.93
2023-09-12T09:45:50.208Z,14.03
2023-09-12T09:48:26.094Z,13.83
2023-09-12T09:50:54.122Z,12.13
2023-09-12T09:53:28.556Z,15.00
2023-09-12T09:56:16.590Z,10.53
2023-09-12T09:58:57.428Z,17.60
2023-09-12T10:01:30.645Z,10.67
2023-09-12T10:04:03.893Z,11.53
2023-09-12T10:06:33.843Z,10.47
2023-09-12T10:09:02.104Z,9.63
2023-09-12T10:11:32.206Z,12.10
2023-09-12T10:14:04.124Z,9.67
2023-09-12T10:16:33.452Z,9.27
2023-09-12T10:19:26.644Z,14.07
2023-09-12T10:22:03.596Z,7.93
2023-09-12T10:24:32.377Z,11.20
2023-09-12T10:27:00.924Z,13.27
2023-09-12T10:29:28.322Z,10.43
2023-09-12T10:31:55.636Z,9.10
2023-09-12T10:34:26.504Z,12.77
2023-09-12T10:36:56.566Z,12.73
2023-09-12T10:39:25.293Z,10.73
2023-09-12T10:41:55.887Z,7.50
2023-09-12T10:44:24.622Z,13.03
2023-09-12T10:46:54.622Z,12.87
2023-09-12T10:49:21.917Z,8.03
2023-09-12T10:51:49.615Z,11.17
2023-09-12T10:54:40.879Z,10.30
2023-09-12T10:57:14.784Z,7.90
2023-09-12T11:00:01.101Z,15.93
2023-09-12T11:02:32.478Z,9.97
2023-09-12T11:05:00.912Z,10.97
2023-09-12T11:07:45.582Z,16.57
2023-09-12T11:10:24.957Z,12.63
2023-09-12T11:12:55.125Z,10.50
2023-09-12T11:15:27.975Z,15.00
2023-09-12T11:18:06.628Z,7.70
2023-09-12T11:21:01.048Z,17.23
2023-09-12T11:23:28.347Z,12.93
2023-09-12T11:26:07.403Z,10.53
2023-09-12T11:28:35.207Z,9.40
2023-09-12T11:31:02.750Z,9.40
2023-09-12T11:33:34.281Z,12.13
2023-09-12T11:36:04.948Z,23.33
2023-09-12T11:38:33.266Z,9.90
2023-09-12T11:41:01.480Z,10.20
2023-09-12T11:43:29.535Z,17.10
2023-09-12T11:45:58.644Z,10.10
2023-09-12T11:48:26.330Z,13.60
2023-09-12T11:50:58.358Z,13.20
2023-09-12T11:53:31.870Z,20.23
2023-09-12T11:56:00.952Z,10.73
2023-09-12T11:58:28.619Z,12.30
2023-09-12T12:00:58.624Z,9.40
2023-09-12T12:03:28.411Z,15.73
2023-09-12T12:05:57.386Z,12.07
2023-09-12T12:10:55.916Z,7.80
2023-09-12T12:13:38.807Z,13.70
2023-09-12T12:16:18.504Z,7.00
2023-09-12T12:18:45.936Z,15.93
2023-09-12T12:21:13.365Z,7.50
2023-09-12T12:23:40.663Z,7.70
2023-09-12T12:26:10.547Z,9.70
2023-09-12T12:28:38.374Z,12.83
2023-09-12T12:31:06.320Z,6.07
2023-09-12T12:34:24.333Z,7.67
2023-09-12T12:36:22.104Z,9.80
2023-09-12T12:38:53.444Z,8.83
2023-09-12T12:41:41.014Z,9.50
2023-09-12T12:44:14.998Z,10.30
2023-09-12T12:46:53.789Z,5.07
2023-09-12T12:49:22.478Z,6.73
2023-09-12T12:51:50.286Z,10.20
2023-09-12T12:54:17.761Z,7.97
2023-09-12T12:56:46.783Z,8.87
2023-09-12T12:59:14.073Z,10.10
2023-09-12T13:01:41.455Z,11.07
2023-09-12T13:04:10.002Z,5.87
2023-09-12T13:06:37.870Z,5.10
2023-09-12T13:09:07.602Z,5.73
2023-09-12T13:11:38.140Z,9.30
2023-09-12T13:14:13.310Z,7.90
2023-09-12T13:16:41.991Z,10.70
2023-09-12T13:19:12.380Z,8.63
2023-09-12T13:21:40.244Z,10.90
2023-09-12T13:24:08.074Z,10.73
2023-09-12T13:26:35.381Z,11.13
2023-09-12T13:29:02.675Z,9.53
2023-09-12T13:31:29.929Z,7.10
2023-09-12T13:33:57.431Z,19.10
2023-09-12T13:36:25.118Z,8.80
2023-09-12T13:38:52.880Z,14.73
2023-09-12T13:41:20.470Z,7.07
2023-09-12T13:43:48.311Z,8.93
2023-09-12T13:46:17.705Z,11.27
2023-09-12T13:48:46.040Z,11.13
2023-09-12T13:51:14.272Z,4.63
2023-09-12T13:53:41.790Z,6.63
2023-09-12T13:56:09.497Z,9.03
2023-09-12T13:58:42.201Z,8.10
2023-09-12T14:01:11.271Z,7.70
2023-09-12T14:03:39.988Z,7.90
2023-09-12T14:06:07.837Z,9.57
2023-09-12T14:08:35.202Z,7.13
2023-09-12T14:11:02.404Z,6.80
2023-09-12T14:13:29.666Z,8.20
2023-09-12T14:15:57.555Z,11.20
2023-09-12T14:18:26.832Z,6.90
2023-09-12T14:20:54.577Z,15.33
2023-09-12T14:23:22.878Z,8.40
2023-09-12T14:25:51.085Z,9.10
2023-09-12T14:28:19.488Z,11.40
2023-09-12T14:30:47.280Z,8.30
2023-09-12T14:33:17.160Z,6.80
2023-09-12T14:35:46.331Z,8.63
2023-09-12T14:38:14.014Z,6.53
2023-09-12T14:40:43.420Z,11.10
2023-09-12T14:43:13.244Z,5.67
2023-09-12T14:45:43.822Z,5.93
2023-09-12T14:48:15.913Z,8.63
2023-09-12T14:50:44.288Z,10.00
2023-09-12T14:53:51.410Z,20.97
2023-09-12T15:01:01.256Z,10.80
2023-09-12T15:06:40.804Z,23.20
2023-09-12T15:09:08.115Z,6.57
2023-09-12T15:11:43.612Z,17.13
2023-09-12T15:14:11.080Z,22.90
2023-09-12T15:16:40.467Z,9.43
2023-09-12T15:19:08.361Z,16.20
2023-09-12T15:21:35.712Z,11.93
2023-09-12T15:24:02.956Z,17.27
2023-09-12T15:26:31.504Z,15.57
2023-09-12T15:29:02.081Z,12.87
2023-09-12T15:31:30.091Z,8.47
2023-09-12T15:33:58.588Z,19.03
2023-09-12T15:36:26.821Z,12.33
2023-09-12T15:38:59.115Z,23.27
2023-09-12T15:41:26.625Z,12.33
2023-09-12T15:44:07.498Z,10.63
2023-09-12T15:46:41.000Z,10.37
2023-09-12T15:49:08.350Z,10.07
2023-09-12T15:51:35.707Z,18.50
2023-09-12T15:54:03.883Z,8.53
2023-09-12T15:56:31.066Z,14.83
2023-09-12T15:58:59.175Z,12.10
2023-09-12T16:01:27.386Z,11.20
2023-09-12T16:04:01.644Z,10.80
2023-09-12T16:06:30.529Z,12.87
2023-09-12T16:08:57.785Z,11.37
2023-09-12T16:11:25.269Z,8.47
2023-09-12T16:13:52.413Z,19.70
2023-09-12T16:16:20.282Z,13.77
2023-09-12T16:18:47.620Z,12.97
2023-09-12T16:21:14.909Z,16.60
2023-09-12T16:23:42.557Z,16.73
2023-09-12T16:26:13.022Z,12.23
2023-09-12T16:28:40.752Z,12.90
2023-09-12T16:31:08.403Z,16.20
2023-09-12T16:33:35.964Z,11.53
2023-09-12T16:36:03.573Z,9.43
2023-09-12T16:38:33.274Z,15.03
2023-09-12T16:41:03.959Z,19.30
2023-09-12T16:43:31.294Z,14.87
2023-09-12T16:45:58.654Z,14.03
2023-09-12T16:48:26.030Z,23.73
2023-09-12T16:50:53.746Z,11.80
2023-09-12T16:53:21.609Z,13.03
2023-09-12T16:55:48.761Z,11.90
2023-09-12T16:58:17.059Z,15.53
2023-09-12T17:00:44.504Z,15.37
2023-09-12T17:03:12.132Z,16.73
2023-09-12T17:05:39.411Z,13.53
2023-09-12T17:08:06.999Z,18.03
2023-09-12T17:10:44.798Z,20.30
2023-09-12T17:13:12.148Z,13.53
2023-09-12T17:15:46.684Z,16.13
2023-09-12T17:18:14.156Z,16.70
2023-09-12T17:20:41.342Z,16.83
2023-09-12T17:23:08.531Z,21.17
2023-09-12T17:25:35.807Z,28.57
2023-09-12T17:28:03.313Z,14.70
2023-09-12T17:30:33.325Z,21.57
2023-09-12T17:33:02.084Z,11.90
2023-09-12T17:35:29.396Z,17.53
2023-09-12T17:37:56.618Z,19.97
2023-09-12T17:40:23.846Z,11.40
2023-09-12T17:42:54.678Z,11.83
2023-09-12T17:45:21.824Z,19.47
2023-09-12T17:47:48.958Z,15.17
2023-09-12T17:50:17.481Z,18.80
2023-09-12T17:52:44.585Z,21.83
2023-09-12T17:55:11.770Z,20.57
2023-09-12T17:57:41.635Z,15.97
2023-09-12T18:00:09.688Z,25.83
2023-09-12T18:02:42.050Z,10.10
2023-09-12T18:05:11.654Z,13.33
2023-09-12T18:07:39.004Z,16.80
2023-09-12T18:10:08.074Z,16.83
2023-09-12T18:12:35.788Z,20.43
2023-09-12T18:15:03.380Z,16.53
2023-09-12T18:17:30.628Z,24.20
2023-09-12T18:19:57.947Z,33.57
2023-09-12T18:22:25.218Z,33.87
2023-09-12T18:24:52.382Z,25.37
2023-09-12T18:27:19.839Z,13.60
2023-09-12T18:29:47.041Z,12.70
2023-09-12T18:32:14.516Z,19.43
2023-09-12T18:34:41.741Z,15.93
2023-09-12T18:37:10.327Z,18.40
2023-09-12T18:39:37.748Z,15.67
2023-09-12T18:42:05.476Z,21.67
2023-09-12T18:44:33.662Z,21.93
2023-09-12T18:47:01.005Z,8.33
2023-09-12T18:49:30.231Z,15.90
2023-09-12T18:51:58.903Z,12.40
2023-09-12T18:54:26.115Z,24.83
2023-09-12T18:56:53.521Z,30.37
2023-09-12T18:59:21.030Z,16.53
2023-09-12T19:01:48.721Z,16.97
2023-09-12T19:04:30.690Z,14.50
2023-09-12T19:06:58.644Z,15.27
2023-09-12T19:09:26.592Z,15.07
2023-09-12T19:11:55.827Z,20.43
2023-09-12T19:14:23.299Z,19.63
2023-09-12T19:16:55.933Z,17.50
2023-09-12T19:19:23.477Z,14.53
2023-09-12T19:21:51.889Z,20.20
2023-09-12T19:24:19.284Z,19.13
2023-09-12T19:26:47.980Z,10.70
2023-09-12T19:29:16.983Z,19.73
2023-09-12T19:31:44.333Z,26.43
2023-09-12T19:34:11.594Z,23.63
2023-09-12T19:36:39.085Z,31.83
2023-09-12T19:39:06.370Z,54.10
2023-09-12T19:41:34.333Z,71.10
2023-09-12T19:44:02.456Z,53.00
2023-09-12T19:46:30.138Z,44.13
2023-09-12T19:48:57.663Z,49.83
2023-09-12T19:51:30.750Z,44.63
2023-09-12T19:53:58.089Z,39.23
2023-09-12T19:56:25.643Z,47.80
2023-09-12T19:58:52.891Z,37.00
2023-09-12T20:01:20.263Z,35.90
2023-09-12T20:03:48.598Z,39.13
2023-09-12T20:06:16.739Z,38.43
2023-09-12T20:08:45.440Z,39.10
2023-09-12T20:11:12.886Z,37.97
2023-09-12T20:13:40.351Z,26.40
2023-09-12T20:16:14.648Z,36.10
2023-09-12T20:18:42.307Z,36.33
2023-09-12T20:21:10.105Z,32.30
2023-09-12T20:23:39.054Z,24.30
2023-09-12T20:26:10.792Z,28.77
2023-09-12T20:28:38.386Z,25.80
2023-09-12T20:31:06.985Z,24.10
2023-09-12T20:33:34.646Z,20.87
2023-09-12T20:36:04.565Z,20.47
2023-09-12T20:38:31.938Z,31.27
2023-09-12T20:40:59.072Z,20.20
2023-09-12T20:43:27.096Z,17.73
2023-09-12T20:45:55.516Z,28.13
2023-09-12T20:48:23.423Z,23.87
2023-09-12T20:50:50.900Z,25.67
2023-09-12T20:53:19.208Z,20.50
2023-09-12T20:55:46.351Z,24.80
2023-09-12T20:58:13.628Z,22.17
2023-09-12T21:00:41.647Z,22.17
2023-09-12T21:03:09.052Z,22.37
2023-09-12T21:05:36.555Z,22.53
2023-09-12T21:08:03.852Z,18.50
2023-09-12T21:10:30.968Z,21.30
2023-09-12T21:12:58.586Z,19.50
2023-09-12T21:15:27.220Z,36.17
2023-09-12T21:17:54.348Z,20.40
2023-09-12T21:20:21.758Z,35.97
2023-09-12T21:22:49.065Z,30.47
2023-09-12T21:25:16.850Z,40.17
2023-09-12T21:27:44.036Z,44.87
2023-09-12T21:30:12.559Z,48.80
2023-09-12T21:32:39.719Z,54.50
2023-09-12T21:35:19.886Z,49.00
2023-09-12T21:37:48.632Z,47.60
2023-09-12T21:40:16.958Z,50.97
2023-09-12T21:42:44.472Z,49.63
2023-09-12T21:45:16.401Z,52.87
2023-09-12T21:47:44.726Z,38.53
2023-09-12T21:50:12.562Z,41.70
2023-09-12T21:52:41.017Z,39.13
2023-09-12T21:55:09.229Z,26.33
2023-09-12T21:57:36.989Z,29.53
2023-09-12T22:00:21.945Z,29.37
2023-09-12T22:02:53.646Z,28.73
2023-09-12T22:05:21.175Z,35.40
2023-09-12T22:07:48.764Z,23.17
2023-09-12T22:10:16.183Z,26.40
2023-09-12T22:12:43.441Z,25.37
2023-09-12T22:15:11.211Z,22.63
2023-09-12T22:17:38.642Z,31.63
2023-09-12T22:20:07.252Z,20.17
2023-09-12T22:22:34.559Z,26.37
2023-09-12T22:25:01.777Z,27.93
2023-09-12T22:27:28.988Z,22.20
2023-09-12T22:29:56.157Z,26.53
2023-09-12T22:32:23.271Z,28.03
2023-09-12T22:34:50.462Z,27.33
2023-09-12T22:37:17.534Z,25.03
2023-09-12T22:39:44.741Z,18.43
2023-09-12T22:42:11.942Z,21.20
2023-09-12T22:44:39.447Z,16.70
2023-09-12T22:47:06.687Z,25.63
2023-09-12T22:49:33.818Z,28.23
2023-09-12T22:52:01.292Z,20.50
2023-09-12T22:54:28.402Z,23.37
2023-09-12T22:56:55.533Z,21.70
2023-09-12T22:59:22.709Z,18.43
2023-09-12T23:01:49.906Z,19.70
2023-09-12T23:04:17.159Z,19.77
2023-09-12T23:06:45.615Z,26.37
2023-09-12T23:09:12.777Z,19.23
2023-09-12T23:11:39.899Z,13.30
2023-09-12T23:14:07.008Z,27.27
2023-09-12T23:16:36.518Z,22.27
2023-09-12T23:19:06.395Z,17.63
2023-09-12T23:21:33.933Z,20.63
2023-09-12T23:24:01.074Z,15.17
2023-09-12T23:26:28.407Z,17.27
2023-09-12T23:28:55.604Z,13.20
2023-09-12T23:31:23.034Z,24.40
2023-09-12T23:33:50.267Z,16.50
2023-09-12T23:36:17.382Z,18.13
2023-09-12T23:38:44.483Z,16.70
2023-09-12T23:41:11.540Z,26.23
2023-09-12T23:43:38.724Z,15.47
2023-09-12T23:46:06.078Z,19.97
2023-09-12T23:48:33.224Z,16.13
2023-09-12T23:51:00.336Z,16.90
2023-09-12T23:53:27.574Z,22.43
2023-09-12T23:56:04.172Z,19.10
2023-09-12T23:58:31.453Z,13.43
